createdAt,value
2022-12-31T00:00:21.658Z,5.33
2022-12-31T00:03:45.630Z,5.30
2022-12-31T00:06:48.681Z,5.25
2022-12-31T00:09:51.524Z,5.25
2022-12-31T00:12:54.477Z,5.21
2022-12-31T00:16:12.048Z,5.19
2022-12-31T00:19:15.431Z,5.17
2022-12-31T00:22:18.310Z,5.19
2022-12-31T00:25:21.232Z,5.16
2022-12-31T00:28:24.088Z,5.15
2022-12-31T00:31:32.571Z,5.15
2022-12-31T00:34:35.683Z,5.15
2022-12-31T00:37:38.574Z,5.13
2022-12-31T00:40:41.459Z,5.11
2022-12-31T00:43:44.969Z,5.07
2022-12-31T00:46:48.522Z,5.04
2022-12-31T00:49:51.227Z,5.05
2022-12-31T00:52:54.021Z,5.04
2022-12-31T00:56:05.463Z,5.07
2022-12-31T00:59:08.533Z,5.08
2022-12-31T01:02:11.613Z,5.09
2022-12-31T01:05:14.697Z,5.07
2022-12-31T01:08:18.100Z,5.05
2022-12-31T01:11:24.284Z,5.04
2022-12-31T01:14:27.261Z,5.05
2022-12-31T01:17:30.078Z,5.05
2022-12-31T01:20:38.245Z,5.05
2022-12-31T01:23:42.153Z,5.05
2022-12-31T01:26:45.371Z,5.15
2022-12-31T01:29:48.567Z,5.10
2022-12-31T01:32:51.417Z,5.09
2022-12-31T01:35:54.238Z,5.10
2022-12-31T01:39:00.324Z,5.09
2022-12-31T01:42:03.192Z,5.10
2022-12-31T01:45:12.035Z,5.12
2022-12-31T01:48:19.685Z,5.19
2022-12-31T01:51:23.749Z,5.17
2022-12-31T01:54:29.165Z,5.18
2022-12-31T01:57:32.468Z,5.20
2022-12-31T02:00:35.664Z,5.20
2022-12-31T02:03:39.019Z,5.19
2022-12-31T02:06:47.288Z,5.25
2022-12-31T02:09:50.836Z,5.26
2022-12-31T02:12:53.571Z,5.27
2022-12-31T02:16:17.465Z,5.24
2022-12-31T02:19:25.957Z,5.20
2022-12-31T02:22:47.869Z,5.19
2022-12-31T02:26:13.240Z,5.19
2022-12-31T02:29:34.819Z,5.25
2022-12-31T02:32:48.386Z,5.23
2022-12-31T02:35:59.679Z,5.30
2022-12-31T02:39:04.314Z,5.29
2022-12-31T02:42:07.536Z,5.30
2022-12-31T02:45:18.279Z,5.31
2022-12-31T02:48:35.421Z,5.32
2022-12-31T02:51:45.783Z,5.32
2022-12-31T02:55:14.097Z,5.42
2022-12-31T02:59:05.694Z,5.37
2022-12-31T03:02:13.956Z,5.33
2022-12-31T03:05:20.680Z,5.37
2022-12-31T03:08:25.697Z,5.38
2022-12-31T03:11:47.223Z,5.37
2022-12-31T03:14:50.962Z,5.37
2022-12-31T03:18:04.253Z,5.41
2022-12-31T03:21:43.509Z,5.45
2022-12-31T03:25:04.877Z,5.42
2022-12-31T03:28:13.133Z,5.37
2022-12-31T03:31:16.491Z,5.43
2022-12-31T03:34:19.779Z,5.40
2022-12-31T03:37:22.355Z,5.39
2022-12-31T03:40:28.481Z,5.51
2022-12-31T03:43:31.033Z,5.45
2022-12-31T03:46:34.196Z,5.41
2022-12-31T03:49:37.076Z,5.42
2022-12-31T03:52:40.794Z,5.39
2022-12-31T03:55:43.391Z,5.41
2022-12-31T03:58:46.469Z,5.44
2022-12-31T04:01:49.023Z,5.42
2022-12-31T04:04:52.386Z,5.41
2022-12-31T04:07:55.851Z,5.38
2022-12-31T04:10:58.959Z,5.42
2022-12-31T04:14:01.470Z,5.42
2022-12-31T04:17:04.623Z,5.45
2022-12-31T04:20:07.907Z,5.45
2022-12-31T04:23:11.085Z,5.43
2022-12-31T04:26:13.637Z,5.56
2022-12-31T04:29:16.925Z,5.52
2022-12-31T04:32:19.644Z,5.50
2022-12-31T04:35:22.766Z,5.50
2022-12-31T04:38:25.295Z,5.47
2022-12-31T04:41:28.454Z,5.47
2022-12-31T04:44:31.725Z,5.49
2022-12-31T04:47:34.804Z,5.45
2022-12-31T04:50:37.395Z,5.47
2022-12-31T04:53:41.174Z,5.48
2022-12-31T04:56:44.176Z,5.47
2022-12-31T04:59:47.408Z,5.48
2022-12-31T05:02:50.603Z,5.45
2022-12-31T05:05:54.863Z,5.48
2022-12-31T05:08:57.461Z,5.47
2022-12-31T05:12:00.749Z,5.48
2022-12-31T05:15:03.481Z,5.52
2022-12-31T05:18:06.635Z,5.66
2022-12-31T05:21:15.417Z,5.63
2022-12-31T05:24:18.478Z,5.57
2022-12-31T05:27:21.256Z,5.56
2022-12-31T05:30:24.495Z,5.56
2022-12-31T05:33:26.908Z,5.55
2022-12-31T05:36:30.009Z,5.54
2022-12-31T05:39:32.513Z,5.54
2022-12-31T05:42:35.619Z,5.53
2022-12-31T05:45:38.393Z,5.53
2022-12-31T05:48:41.360Z,5.52
2022-12-31T05:51:44.055Z,5.53
2022-12-31T05:54:47.191Z,5.53
2022-12-31T05:57:49.724Z,5.56
2022-12-31T06:00:53.196Z,5.64
2022-12-31T06:03:56.097Z,5.63
2022-12-31T06:06:58.904Z,5.57
2022-12-31T06:10:01.969Z,5.53
2022-12-31T06:13:05.262Z,5.53
2022-12-31T06:16:09.692Z,5.52
2022-12-31T06:19:12.596Z,5.52
2022-12-31T06:22:16.180Z,5.55
2022-12-31T06:25:19.364Z,5.57
2022-12-31T06:28:22.452Z,5.54
2022-12-31T06:31:25.274Z,5.53
2022-12-31T06:34:28.147Z,5.55
2022-12-31T06:37:30.936Z,5.54
2022-12-31T06:40:37.966Z,5.53
2022-12-31T06:43:42.802Z,5.53
2022-12-31T06:46:45.819Z,5.51
2022-12-31T06:49:48.734Z,5.54
2022-12-31T06:52:51.573Z,5.55
2022-12-31T06:55:55.120Z,5.60
2022-12-31T06:58:58.549Z,5.56
2022-12-31T07:02:14.602Z,5.57
2022-12-31T07:05:39.515Z,5.61
2022-12-31T07:08:42.275Z,5.62
2022-12-31T07:11:52.603Z,5.60
2022-12-31T07:15:06.330Z,5.68
2022-12-31T07:18:11.796Z,5.72
2022-12-31T07:21:18.347Z,5.74
2022-12-31T07:24:21.707Z,5.75
2022-12-31T07:27:45.701Z,5.72
2022-12-31T07:31:03.767Z,5.70
2022-12-31T07:34:25.101Z,5.69
2022-12-31T07:37:39.964Z,5.72
2022-12-31T07:41:09.423Z,5.82
2022-12-31T07:44:35.324Z,5.91
2022-12-31T07:47:38.520Z,5.92
2022-12-31T07:50:41.594Z,6.01
2022-12-31T07:53:44.449Z,6.04
2022-12-31T07:56:48.399Z,5.93
2022-12-31T08:00:08.245Z,5.99
2022-12-31T08:03:21.016Z,6.20
2022-12-31T08:06:30.363Z,6.28
2022-12-31T08:09:41.920Z,6.32
2022-12-31T08:12:46.857Z,6.36
2022-12-31T08:15:49.602Z,6.34
2022-12-31T08:18:53.202Z,6.37
2022-12-31T08:22:04.844Z,6.47
2022-12-31T08:25:19.337Z,6.49
2022-12-31T08:28:39.550Z,6.56
2022-12-31T08:32:07.764Z,6.58
2022-12-31T08:35:40.809Z,6.66
2022-12-31T08:38:54.971Z,6.82
2022-12-31T08:41:58.276Z,6.91
2022-12-31T08:45:37.775Z,6.95
2022-12-31T08:48:43.863Z,7.19
2022-12-31T08:51:47.281Z,7.26
2022-12-31T08:54:50.177Z,7.23
2022-12-31T08:58:11.777Z,7.30
2022-12-31T09:01:19.124Z,7.36
2022-12-31T09:04:40.750Z,7.75
2022-12-31T09:08:15.319Z,8.10
2022-12-31T09:11:28.201Z,8.09
2022-12-31T09:14:47.448Z,8.07
2022-12-31T09:17:52.270Z,8.11
2022-12-31T09:20:55.064Z,8.18
2022-12-31T09:23:58.463Z,8.09
2022-12-31T09:27:35.169Z,7.89
2022-12-31T09:30:47.269Z,8.10
2022-12-31T09:34:02.132Z,7.96
2022-12-31T09:37:44.334Z,7.86
2022-12-31T09:41:08.841Z,7.84
2022-12-31T09:44:17.933Z,7.95
2022-12-31T09:47:23.803Z,7.84
2022-12-31T09:50:32.862Z,7.76
2022-12-31T09:54:05.233Z,7.75
2022-12-31T09:57:37.176Z,7.82
2022-12-31T10:00:59.938Z,7.88
2022-12-31T10:04:14.070Z,7.96
2022-12-31T10:07:34.942Z,8.06
2022-12-31T10:10:57.903Z,8.16
2022-12-31T10:14:26.975Z,8.36
2022-12-31T10:17:38.208Z,8.26
2022-12-31T10:21:23.406Z,8.24
2022-12-31T10:24:32.789Z,8.20
2022-12-31T10:27:53.636Z,8.25
2022-12-31T10:31:17.236Z,8.24
2022-12-31T10:35:13.960Z,8.30
2022-12-31T10:38:50.915Z,8.34
2022-12-31T10:41:59.335Z,8.38
2022-12-31T10:45:14.610Z,8.46
2022-12-31T10:48:33.785Z,8.53
2022-12-31T10:51:50.909Z,8.49
2022-12-31T10:55:10.416Z,8.30
2022-12-31T10:58:39.927Z,8.25
2022-12-31T11:01:54.372Z,8.14
2022-12-31T11:05:03.289Z,8.13
2022-12-31T11:08:33.148Z,8.26
2022-12-31T11:11:58.321Z,8.27
2022-12-31T11:15:23.078Z,8.24
2022-12-31T11:18:26.092Z,8.22
2022-12-31T11:21:39.390Z,8.13
2022-12-31T11:25:19.156Z,8.08
2022-12-31T11:29:03.838Z,8.12
2022-12-31T11:32:26.947Z,8.05
2022-12-31T11:35:41.615Z,8.03
2022-12-31T11:39:00.368Z,7.96
2022-12-31T11:42:21.362Z,8.00
2022-12-31T11:45:50.870Z,8.05
2022-12-31T11:49:08.600Z,8.12
2022-12-31T11:52:36.197Z,8.18
2022-12-31T11:56:06.365Z,8.29
2022-12-31T11:59:18.866Z,8.21
2022-12-31T12:02:32.319Z,8.42
2022-12-31T12:05:36.502Z,8.51
2022-12-31T12:08:40.630Z,8.64
2022-12-31T12:11:43.953Z,8.41
2022-12-31T12:14:52.654Z,8.30
2022-12-31T12:18:08.141Z,8.30
2022-12-31T12:21:11.959Z,8.28
2022-12-31T12:24:29.116Z,8.31
2022-12-31T12:27:34.634Z,8.46
2022-12-31T12:30:41.357Z,8.64
2022-12-31T12:33:46.370Z,8.70
2022-12-31T12:36:50.103Z,8.81
2022-12-31T12:40:02.235Z,9.24
2022-12-31T12:43:06.995Z,9.33
2022-12-31T12:46:30.436Z,9.40
2022-12-31T12:49:46.014Z,9.42
2022-12-31T12:53:13.035Z,9.40
2022-12-31T12:56:51.589Z,9.40
2022-12-31T13:00:03.578Z,9.36
2022-12-31T13:04:07.284Z,9.33
2022-12-31T13:07:27.115Z,9.41
2022-12-31T13:10:40.789Z,9.39
2022-12-31T13:13:45.841Z,9.25
2022-12-31T13:17:07.189Z,9.18
2022-12-31T13:20:23.471Z,9.12
2022-12-31T13:23:33.610Z,9.08
2022-12-31T13:26:38.811Z,9.06
2022-12-31T13:29:44.263Z,9.05
2022-12-31T13:32:51.713Z,9.00
2022-12-31T13:36:00.525Z,8.98
2022-12-31T13:39:12.307Z,8.96
2022-12-31T13:42:22.219Z,8.90
2022-12-31T13:45:33.214Z,8.90
2022-12-31T13:48:47.244Z,8.87
2022-12-31T13:51:53.523Z,8.85
2022-12-31T13:55:21.469Z,8.83
2022-12-31T13:58:46.279Z,8.81
2022-12-31T14:01:56.318Z,8.83
2022-12-31T14:05:17.748Z,8.85
2022-12-31T14:08:20.741Z,8.89
2022-12-31T14:11:42.444Z,8.95
2022-12-31T14:15:07.097Z,8.94
2022-12-31T14:18:18.651Z,8.92
2022-12-31T14:21:34.118Z,8.90
2022-12-31T14:24:43.245Z,8.86
2022-12-31T14:27:48.286Z,8.83
2022-12-31T14:30:58.950Z,8.82
2022-12-31T14:34:33.729Z,8.85
2022-12-31T14:38:01.686Z,8.86
2022-12-31T14:41:26.493Z,8.83
2022-12-31T14:44:44.102Z,8.80
2022-12-31T14:47:52.952Z,8.78
2022-12-31T14:50:59.005Z,8.73
2022-12-31T14:54:02.177Z,8.68
2022-12-31T14:57:17.003Z,8.69
2022-12-31T15:00:39.931Z,8.69
2022-12-31T15:03:46.100Z,8.56
2022-12-31T15:06:58.468Z,8.51
2022-12-31T15:10:07.435Z,8.53
2022-12-31T15:13:28.020Z,8.59
2022-12-31T15:16:52.604Z,8.52
2022-12-31T15:20:03.651Z,8.47
2022-12-31T15:23:34.466Z,8.40
2022-12-31T15:26:37.415Z,8.33
2022-12-31T15:29:45.485Z,8.22
2022-12-31T15:32:48.453Z,8.15
2022-12-31T15:35:54.126Z,8.14
2022-12-31T15:39:26.338Z,8.14
2022-12-31T15:42:49.175Z,8.11
2022-12-31T15:45:56.545Z,8.14
2022-12-31T15:49:20.291Z,8.13
2022-12-31T15:52:30.289Z,8.14
2022-12-31T15:55:38.775Z,8.16
2022-12-31T15:58:44.681Z,8.18
2022-12-31T16:01:48.668Z,8.21
2022-12-31T16:04:55.609Z,8.23
2022-12-31T16:07:59.600Z,8.26
2022-12-31T16:11:08.397Z,8.27
2022-12-31T16:14:38.584Z,8.29
2022-12-31T16:17:41.892Z,8.31
2022-12-31T16:20:48.511Z,8.38
2022-12-31T16:23:53.765Z,8.41
2022-12-31T16:26:59.868Z,8.41
2022-12-31T16:30:18.265Z,8.41
2022-12-31T16:33:21.090Z,8.43
2022-12-31T16:36:24.373Z,8.40
2022-12-31T16:39:39.382Z,8.41
2022-12-31T16:42:44.571Z,8.40
2022-12-31T16:45:47.358Z,8.38
2022-12-31T16:49:12.628Z,8.42
2022-12-31T16:52:41.643Z,8.38
2022-12-31T16:55:54.048Z,8.29
2022-12-31T16:59:03.434Z,8.20
2022-12-31T17:02:32.797Z,8.14
2022-12-31T17:06:14.849Z,8.08
2022-12-31T17:09:21.201Z,8.05
2022-12-31T17:12:24.973Z,8.01
2022-12-31T17:15:38.715Z,7.96
2022-12-31T17:18:44.453Z,7.93
2022-12-31T17:21:48.736Z,7.89
2022-12-31T17:24:52.325Z,7.86
2022-12-31T17:28:08.060Z,7.84
2022-12-31T17:31:40.976Z,7.85
2022-12-31T17:34:51.310Z,7.87
2022-12-31T17:37:53.841Z,7.86
2022-12-31T17:41:06.286Z,7.84
2022-12-31T17:44:22.591Z,7.82
2022-12-31T17:47:34.778Z,7.79
2022-12-31T17:50:50.225Z,7.82
2022-12-31T17:53:53.490Z,7.76
2022-12-31T17:56:57.606Z,7.74
2022-12-31T18:00:00.467Z,7.71
2022-12-31T18:03:02.938Z,7.69
2022-12-31T18:06:09.177Z,7.71
2022-12-31T18:09:16.622Z,7.68
2022-12-31T18:12:20.197Z,7.64
2022-12-31T18:15:24.835Z,7.62
2022-12-31T18:18:30.654Z,7.60
2022-12-31T18:21:34.761Z,7.57
2022-12-31T18:24:37.909Z,7.56
2022-12-31T18:27:42.064Z,7.53
2022-12-31T18:30:48.400Z,7.51
2022-12-31T18:33:52.597Z,7.48
2022-12-31T18:36:55.878Z,7.46
2022-12-31T18:39:58.502Z,7.47
2022-12-31T18:43:05.112Z,7.46
2022-12-31T18:46:15.278Z,7.47
2022-12-31T18:49:18.761Z,7.47
2022-12-31T18:52:23.371Z,7.45
2022-12-31T18:55:42.929Z,7.41
2022-12-31T18:58:46.627Z,7.39
2022-12-31T19:01:49.831Z,7.37
2022-12-31T19:04:52.574Z,7.35
2022-12-31T19:07:56.467Z,7.35
2022-12-31T19:10:59.069Z,7.35
2022-12-31T19:14:03.012Z,7.33
2022-12-31T19:20:07.577Z,7.31
2022-12-31T19:23:19.215Z,7.29
2022-12-31T19:26:25.265Z,7.30
2022-12-31T19:29:28.974Z,7.29
2022-12-31T19:32:32.084Z,7.29
2022-12-31T19:35:34.651Z,7.29
2022-12-31T19:38:37.737Z,7.25
2022-12-31T19:41:43.064Z,7.23
2022-12-31T19:44:46.157Z,7.20
2022-12-31T19:47:49.277Z,7.17
2022-12-31T19:50:54.858Z,7.13
2022-12-31T19:53:57.415Z,7.11
2022-12-31T19:57:00.507Z,7.15
2022-12-31T20:00:03.643Z,7.08
2022-12-31T20:03:15.517Z,7.02
2022-12-31T20:06:19.761Z,6.98
2022-12-31T20:09:22.806Z,6.95
2022-12-31T20:12:25.733Z,6.93
2022-12-31T20:15:28.641Z,6.90
2022-12-31T20:18:31.529Z,6.89
2022-12-31T20:21:34.451Z,6.92
2022-12-31T20:24:37.251Z,6.93
2022-12-31T20:27:40.150Z,6.96
2022-12-31T20:30:42.994Z,6.93
2022-12-31T20:33:45.949Z,6.90
2022-12-31T20:36:48.855Z,6.87
2022-12-31T20:39:51.880Z,6.84
2022-12-31T20:42:54.765Z,6.82
2022-12-31T20:45:57.823Z,6.79
2022-12-31T20:49:03.241Z,6.75
2022-12-31T20:52:06.419Z,6.73
2022-12-31T20:55:11.216Z,6.72
2022-12-31T20:58:14.093Z,6.73
2022-12-31T21:01:17.443Z,6.72
2022-12-31T21:04:20.488Z,6.69
2022-12-31T21:07:23.919Z,6.69
2022-12-31T21:10:26.745Z,6.69
2022-12-31T21:13:31.158Z,6.69
2022-12-31T21:16:34.435Z,6.68
2022-12-31T21:19:37.200Z,6.67
2022-12-31T21:22:40.151Z,6.64
2022-12-31T21:25:43.996Z,6.62
2022-12-31T21:28:47.027Z,6.60
2022-12-31T21:31:50.057Z,6.62
2022-12-31T21:35:14.959Z,6.59
2022-12-31T21:38:15.819Z,6.59
2022-12-31T21:41:37.314Z,6.56
2022-12-31T21:44:40.195Z,6.59
2022-12-31T21:48:01.585Z,6.56
2022-12-31T21:51:08.303Z,6.54
2022-12-31T21:54:31.050Z,6.54
2022-12-31T21:57:51.888Z,6.52
2022-12-31T22:01:17.007Z,6.48
2022-12-31T22:04:59.938Z,6.45
2022-12-31T22:07:43.123Z,6.42
2022-12-31T22:10:52.111Z,6.40
2022-12-31T22:13:56.248Z,6.38
2022-12-31T22:16:58.919Z,6.37
2022-12-31T22:20:26.355Z,6.34
2022-12-31T22:23:24.484Z,6.34
2022-12-31T22:26:29.024Z,6.30
2022-12-31T22:29:31.998Z,6.33
2022-12-31T22:32:35.076Z,6.36
2022-12-31T22:35:37.884Z,6.30
2022-12-31T22:38:40.820Z,6.26
2022-12-31T22:41:43.720Z,6.24
2022-12-31T22:44:46.676Z,6.24
2022-12-31T22:47:49.449Z,6.23
2022-12-31T22:50:58.452Z,6.20
2022-12-31T22:54:01.372Z,6.21
2022-12-31T22:57:04.201Z,6.20
2022-12-31T23:00:12.813Z,6.21
2022-12-31T23:03:16.170Z,6.19
2022-12-31T23:06:20.639Z,6.17
2022-12-31T23:09:42.336Z,6.16
2022-12-31T23:12:45.208Z,6.18
2022-12-31T23:16:06.821Z,6.14
2022-12-31T23:19:28.611Z,6.12
2022-12-31T23:22:50.035Z,6.22
2022-12-31T23:25:52.989Z,6.25
2022-12-31T23:28:55.815Z,6.21
2022-12-31T23:31:58.835Z,6.16
2022-12-31T23:35:09.257Z,6.14
2022-12-31T23:38:13.750Z,6.10
2022-12-31T23:41:19.468Z,6.05
2022-12-31T23:44:22.417Z,6.04
2022-12-31T23:47:25.322Z,6.02
2022-12-31T23:50:28.352Z,6.10
2022-12-31T23:53:31.565Z,6.06
2022-12-31T23:56:34.804Z,6.02
2022-12-31T23:59:37.677Z,6.01
